Time;durP1;ratioP1;P1;durP2;ratioP2;P2;SDS_P1;SDS_P2;PMS_P1;PMS_P2;Temp;Humidity;BMP_temperature;BMP_pressure;BME280_temperature;BME280_humidity;BME280_pressure;Samples;Min_cycle;Max_cycle;Signal;HPM_P1;HPM_P2
2022/08/07 00:00:26;;;;;;;1.57;1.20;;;20.50;57.20;;;;;;4998944;28;20463;-83
2022/08/07 00:03:05;;;;;;;2.30;1.77;;;20.40;57.30;;;;;;4970785;28;20494;-83
2022/08/07 00:05:32;;;;;;;2.13;1.20;;;20.30;58.00;;;;;;5013701;28;20446;-83
2022/08/07 00:07:58;;;;;;;1.53;1.40;;;20.20;58.00;;;;;;5010706;28;20992;-83
2022/08/07 00:10:29;;;;;;;1.30;1.20;;;20.20;58.10;;;;;;5007041;28;20471;-83
2022/08/07 00:12:58;;;;;;;2.93;1.40;;;20.20;57.80;;;;;;4997427;28;21059;-83
2022/08/07 00:15:28;;;;;;;0.97;0.90;;;20.30;57.60;;;;;;4979864;28;20479;-84
2022/08/07 00:18:02;;;;;;;1.83;1.27;;;20.30;57.40;;;;;;4968506;28;21037;-84
2022/08/07 00:20:29;;;;;;;1.43;1.33;;;20.30;57.10;;;;;;4975284;28;20894;-84
2022/08/07 00:23:00;;;;;;;1.77;1.20;;;20.40;56.90;;;;;;4996868;28;20549;-82
2022/08/07 00:25:26;;;;;;;1.40;1.20;;;20.20;57.40;;;;;;4995289;28;20465;-85
2022/08/07 00:27:53;;;;;;;1.37;1.20;;;20.20;57.50;;;;;;5006629;28;20447;-85
2022/08/07 00:30:22;;;;;;;1.10;1.00;;;20.00;57.80;;;;;;4998290;28;20463;-84
2022/08/07 00:32:53;;;;;;;1.30;1.30;;;20.00;58.20;;;;;;4992219;28;21050;-85
2022/08/07 00:35:20;;;;;;;3.30;3.10;;;20.00;58.30;;;;;;5002213;28;20995;-84
2022/08/07 00:37:49;;;;;;;2.10;1.20;;;20.00;58.90;;;;;;4981544;28;20647;-86
2022/08/07 00:40:21;;;;;;;1.57;0.90;;;20.00;58.30;;;;;;5000111;28;20491;-86
2022/08/07 00:43:10;;;;;;;3.53;1.30;;;20.10;58.50;;;;;;5012431;28;20455;-85
2022/08/07 00:46:04;;;;;;;1.40;1.30;;;20.00;58.10;;;;;;4987078;28;20439;-85
2022/08/07 00:48:31;;;;;;;0.80;0.80;;;20.00;58.50;;;;;;4983134;28;20455;-85
2022/08/07 00:51:11;;;;;;;0.83;0.83;;;19.90;58.70;;;;;;4981145;28;20456;-85
2022/08/07 00:53:58;;;;;;;1.30;1.20;;;19.90;59.00;;;;;;5015702;23;20485;-85
2022/08/07 00:56:37;;;;;;;1.23;1.13;;;19.90;59.10;;;;;;5040346;28;20597;-83
2022/08/07 00:59:16;;;;;;;2.47;1.20;;;19.90;58.80;;;;;;5028826;28;20512;-84
2022/08/07 01:02:16;;;;;;;1.13;0.80;;;19.90;58.60;;;;;;5026217;28;20907;-84
2022/08/07 01:04:58;;;;;;;1.10;1.00;;;19.90;58.70;;;;;;5017317;28;20451;-84
2022/08/07 01:07:30;;;;;;;1.63;1.10;;;19.90;58.70;;;;;;5020243;28;20458;-85
2022/08/07 01:10:05;;;;;;;1.30;1.20;;;19.90;58.70;;;;;;5025892;28;20443;-84
2022/08/07 01:12:40;;;;;;;1.03;0.93;;;19.90;58.30;;;;;;5042584;28;20468;-86
2022/08/07 01:15:28;;;;;;;1.27;1.17;;;19.80;58.20;;;;;;5017212;28;20482;-85
2022/08/07 01:18:07;;;;;;;1.30;1.20;;;19.90;58.00;;;;;;5022619;28;20433;-84
2022/08/07 01:20:43;;;;;;;1.17;1.07;;;19.80;57.90;;;;;;5013136;28;20462;-83
2022/08/07 01:23:11;;;;;;;1.27;1.17;;;19.70;58.00;;;;;;5003188;28;20490;-85
2022/08/07 01:25:39;;;;;;;1.87;1.73;;;19.40;58.40;;;;;;5011651;28;20434;-83
2022/08/07 01:28:22;;;;;;;2.93;1.40;;;19.50;59.50;;;;;;5016805;28;20471;-82
2022/08/07 01:30:49;;;;;;;1.50;1.40;;;19.50;59.40;;;;;;5014311;28;20796;-85
2022/08/07 01:33:16;;;;;;;2.27;2.07;;;19.40;59.20;;;;;;5019137;28;20514;-84
2022/08/07 01:35:43;;;;;;;2.97;1.80;;;19.20;59.60;;;;;;5020169;28;20478;-82
2022/08/07 01:38:22;;;;;;;3.50;1.33;;;19.20;59.60;;;;;;5003491;28;20529;-83
2022/08/07 01:40:56;;;;;;;1.37;1.27;;;19.40;59.60;;;;;;5001997;28;20454;-83
2022/08/07 01:43:24;;;;;;;1.70;1.60;;;19.30;59.40;;;;;;5045273;28;20461;-82
2022/08/07 01:45:52;;;;;;;2.40;1.50;;;19.40;59.90;;;;;;5025994;28;20426;-81
2022/08/07 01:48:20;;;;;;;2.03;1.83;;;19.40;60.40;;;;;;4998694;28;20451;-84
2022/08/07 01:50:59;;;;;;;1.90;1.70;;;19.30;60.60;;;;;;5016754;28;20481;-84
2022/08/07 01:53:27;;;;;;;2.53;1.80;;;19.40;59.50;;;;;;5015811;28;21002;-82
2022/08/07 01:56:28;;;;;;;1.70;1.60;;;19.20;59.30;;;;;;5026163;28;20481;-84
2022/08/07 01:59:01;;;;;;;3.37;1.47;;;19.20;59.60;;;;;;5022408;28;20444;-85
2022/08/07 02:01:35;;;;;;;2.37;1.60;;;19.20;60.00;;;;;;5007686;28;20443;-85
2022/08/07 02:04:31;;;;;;;1.80;1.70;;;19.00;60.40;;;;;;5016634;28;20431;-84
2022/08/07 02:07:00;;;;;;;1.83;1.40;;;19.00;61.40;;;;;;5025756;28;20454;-83
2022/08/07 02:09:28;;;;;;;1.80;1.50;;;19.00;61.60;;;;;;5016115;28;20451;-83
2022/08/07 02:12:15;;;;;;;1.60;1.50;;;19.20;61.70;;;;;;5018937;28;20484;-82
2022/08/07 02:14:50;;;;;;;1.50;1.40;;;19.10;61.40;;;;;;5019113;28;20805;-82
2022/08/07 02:17:17;;;;;;;1.97;1.77;;;19.20;62.10;;;;;;5002634;28;21204;-84
2022/08/07 02:19:52;;;;;;;4.83;1.80;;;19.00;63.20;;;;;;5011909;28;20465;-84
2022/08/07 02:22:31;;;;;;;1.67;1.57;;;18.90;63.20;;;;;;4987224;28;20467;-84
2022/08/07 02:24:59;;;;;;;2.00;1.77;;;18.90;63.90;;;;;;5006648;28;20454;-86
2022/08/07 02:27:28;;;;;;;2.00;1.80;;;18.90;64.40;;;;;;5007007;28;20453;-85
2022/08/07 02:29:57;;;;;;;1.80;1.70;;;19.10;64.80;;;;;;5023372;28;20455;-83
2022/08/07 02:32:26;;;;;;;2.10;1.87;;;19.10;64.40;;;;;;5028978;28;20446;-84
2022/08/07 02:34:57;;;;;;;2.80;1.80;;;19.00;64.80;;;;;;5056290;28;20485;-84
2022/08/07 02:37:26;;;;;;;2.00;1.60;;;19.00;65.00;;;;;;5053222;28;20459;-82
2022/08/07 02:39:55;;;;;;;2.60;2.40;;;19.10;65.70;;;;;;5036279;28;20438;-82
2022/08/07 02:42:31;;;;;;;2.67;2.20;;;19.00;66.10;;;;;;5033548;28;20532;-84
2022/08/07 02:45:00;;;;;;;2.10;2.00;;;19.00;67.20;;;;;;5015910;28;20450;-84
2022/08/07 02:47:33;;;;;;;2.63;2.43;;;18.90;68.40;;;;;;5026206;28;20446;-83
2022/08/07 02:50:01;;;;;;;2.83;2.63;;;18.80;68.90;;;;;;5016892;28;20512;-84
2022/08/07 02:52:39;;;;;;;2.03;1.90;;;18.80;69.30;;;;;;5021451;28;20474;-84
2022/08/07 02:55:12;;;;;;;2.30;2.10;;;19.00;71.20;;;;;;5032110;28;20470;-85
2022/08/07 02:57:43;;;;;;;2.80;2.53;;;18.90;72.00;;;;;;5001144;28;20470;-85
2022/08/07 03:00:11;;;;;;;2.40;2.20;;;19.00;72.90;;;;;;5004739;28;20465;-85
2022/08/07 03:02:40;;;;;;;2.73;2.53;;;18.90;72.90;;;;;;5029848;28;20472;-85
2022/08/07 03:05:09;;;;;;;2.80;2.60;;;19.00;72.00;;;;;;5005603;28;20458;-85
2022/08/07 03:07:37;;;;;;;5.80;2.70;;;19.00;76.10;;;;;;5020699;28;20468;-84
2022/08/07 03:10:09;;;;;;;2.77;2.50;;;18.70;78.70;;;;;;5011941;28;20453;-85
2022/08/07 03:12:37;;;;;;;2.67;2.43;;;18.50;81.40;;;;;;5017199;28;20482;-84
2022/08/07 03:15:06;;;;;;;2.50;2.30;;;18.40;84.20;;;;;;5032302;28;20470;-84
2022/08/07 03:17:34;;;;;;;2.60;2.40;;;18.60;86.70;;;;;;5030676;28;20529;-84
2022/08/07 03:20:03;;;;;;;2.80;2.40;;;18.50;88.50;;;;;;4996801;28;20524;-85
2022/08/07 03:22:30;;;;;;;4.50;2.00;;;18.40;89.30;;;;;;5031832;28;20507;-85
2022/08/07 03:24:58;;;;;;;2.57;2.37;;;18.30;90.00;;;;;;5030735;28;20449;-84
2022/08/07 03:27:27;;;;;;;2.47;2.30;;;18.10;90.80;;;;;;5000305;28;20451;-83
2022/08/07 03:29:56;;;;;;;2.50;2.30;;;17.90;91.60;;;;;;4997222;28;20477;-83
2022/08/07 03:32:33;;;;;;;2.40;2.20;;;17.80;91.90;;;;;;5037040;28;21015;-82
2022/08/07 03:35:02;;;;;;;2.57;2.13;;;17.70;92.00;;;;;;4993713;28;20454;-85
2022/08/07 03:37:47;;;;;;;4.50;2.53;;;17.70;92.40;;;;;;5014008;28;20485;-84
2022/08/07 03:40:21;;;;;;;2.70;2.40;;;17.70;92.50;;;;;;5012278;28;20467;-83
2022/08/07 03:42:50;;;;;;;2.47;2.27;;;17.70;92.70;;;;;;5000730;28;20476;-83
2022/08/07 03:45:18;;;;;;;1.87;1.77;;;17.60;92.70;;;;;;5019789;28;20451;-83
2022/08/07 03:47:47;;;;;;;2.40;2.20;;;17.70;92.60;;;;;;4994538;28;20957;-84
2022/08/07 03:50:21;;;;;;;2.23;2.03;;;17.80;92.00;;;;;;5012915;28;20861;-84
2022/08/07 03:52:49;;;;;;;3.47;2.13;;;17.70;91.30;;;;;;5022955;28;20476;-84
2022/08/07 03:55:16;;;;;;;2.07;1.87;;;17.70;90.60;;;;;;5023529;28;22736;-83
2022/08/07 03:57:45;;;;;;;1.93;1.83;;;17.50;90.40;;;;;;5014413;28;20458;-83
2022/08/07 04:00:34;;;;;;;1.87;1.77;;;17.30;90.20;;;;;;5002938;28;20439;-84
2022/08/07 04:03:01;;;;;;;2.40;2.20;;;17.30;88.70;;;;;;5017638;28;20584;-84
2022/08/07 04:05:29;;;;;;;1.60;1.50;;;17.20;88.50;;;;;;5002778;28;20446;-84
2022/08/07 04:08:05;;;;;;;2.00;1.90;;;17.10;88.60;;;;;;5016118;28;20478;-84
2022/08/07 04:10:32;;;;;;;2.83;1.97;;;17.10;89.40;;;;;;5039899;28;20445;-84
2022/08/07 04:12:59;;;;;;;1.80;1.70;;;17.10;90.10;;;;;;5003967;28;20466;-83
2022/08/07 04:15:26;;;;;;;3.83;1.63;;;17.10;90.30;;;;;;5026542;28;20481;-84
2022/08/07 04:17:53;;;;;;;2.43;2.10;;;17.10;90.40;;;;;;5030988;28;20451;-84
2022/08/07 04:20:41;;;;;;;3.00;2.10;;;17.20;90.40;;;;;;5018387;28;20427;-85
2022/08/07 04:23:09;;;;;;;4.30;2.10;;;17.20;90.60;;;;;;4999125;28;20475;-84
2022/08/07 04:25:37;;;;;;;2.00;1.90;;;17.20;90.90;;;;;;5022062;28;20458;-84
2022/08/07 04:28:06;;;;;;;2.47;2.27;;;17.30;91.00;;;;;;5010612;28;20542;-84
2022/08/07 04:30:35;;;;;;;2.00;1.90;;;17.30;91.10;;;;;;5002001;28;20464;-85
2022/08/07 04:33:10;;;;;;;2.23;1.73;;;17.30;91.10;;;;;;5011780;28;20469;-84
2022/08/07 04:35:40;;;;;;;3.10;1.90;;;17.30;91.30;;;;;;5008610;28;20474;-84
2022/08/07 04:38:07;;;;;;;2.20;2.03;;;17.20;91.30;;;;;;5023687;28;20505;-85
2022/08/07 04:40:39;;;;;;;2.80;2.20;;;17.10;91.50;;;;;;5018410;28;20939;-84
2022/08/07 04:43:10;;;;;;;2.23;2.03;;;17.20;91.70;;;;;;5021708;28;20501;-84
2022/08/07 04:45:48;;;;;;;1.80;1.70;;;17.10;91.80;;;;;;5009441;28;20451;-84
2022/08/07 04:48:27;;;;;;;3.00;2.20;;;17.20;91.70;;;;;;5010149;28;20461;-85
2022/08/07 04:51:21;;;;;;;2.03;1.80;;;17.20;91.40;;;;;;5033045;28;20983;-83
2022/08/07 04:54:05;;;;;;;2.50;2.30;;;17.20;91.40;;;;;;5002769;28;20558;-84
2022/08/07 04:56:53;;;;;;;2.40;2.20;;;17.40;90.80;;;;;;5028238;28;20494;-83
2022/08/07 04:59:57;;;;;;;1.83;1.67;;;17.30;90.80;;;;;;5013277;28;20919;-84
2022/08/07 05:02:46;;;;;;;2.77;1.87;;;17.20;90.80;;;;;;5024323;28;20474;-84
2022/08/07 05:05:18;;;;;;;2.27;2.07;;;17.30;90.80;;;;;;5020412;28;20462;-82
2022/08/07 05:08:16;;;;;;;2.40;2.20;;;17.60;92.00;;;;;;5016772;28;20820;-85
2022/08/07 05:10:54;;;;;;;2.37;2.17;;;17.60;91.90;;;;;;5000008;28;20457;-85
2022/08/07 05:13:48;;;;;;;3.57;2.40;;;17.60;91.90;;;;;;5002043;28;20479;-84
2022/08/07 05:16:37;;;;;;;2.30;2.10;;;17.50;92.30;;;;;;5013131;28;20541;-82
2022/08/07 05:19:14;;;;;;;2.57;2.37;;;17.50;92.60;;;;;;4998230;28;20468;-84
2022/08/07 05:21:46;;;;;;;2.37;2.17;;;17.40;92.70;;;;;;5007169;28;20430;-85
2022/08/07 05:24:36;;;;;;;2.13;2.00;;;17.40;92.60;;;;;;5008617;28;20454;-86
2022/08/07 05:27:20;;;;;;;2.33;2.13;;;17.40;92.50;;;;;;5008664;28;20446;-83
2022/08/07 05:30:17;;;;;;;3.27;2.40;;;17.40;92.80;;;;;;4999580;28;20542;-85
2022/08/07 05:33:15;;;;;;;2.60;2.40;;;17.20;92.90;;;;;;4948244;28;20517;-83
2022/08/07 05:36:02;;;;;;;2.47;2.27;;;17.30;92.70;;;;;;4959776;28;20508;-84
2022/08/07 05:38:41;;;;;;;2.33;2.10;;;17.20;92.60;;;;;;4954494;28;20516;-84
2022/08/07 05:41:50;;;;;;;3.20;2.33;;;17.00;92.90;;;;;;4959335;28;20958;-84
2022/08/07 05:44:41;;;;;;;2.50;2.30;;;17.10;93.00;;;;;;4935387;28;20525;-85
2022/08/07 05:47:22;;;;;;;5.20;3.20;;;17.10;92.60;;;;;;4939532;28;20488;-84
2022/08/07 05:50:13;;;;;;;3.30;3.00;;;17.10;92.60;;;;;;4950767;28;20465;-84
2022/08/07 05:52:42;;;;;;;4.07;2.80;;;17.00;92.40;;;;;;4951831;28;20486;-84
2022/08/07 05:55:36;;;;;;;2.93;2.70;;;17.10;92.90;;;;;;4946596;28;20501;-84
2022/08/07 05:58:29;;;;;;;3.00;2.70;;;17.30;92.70;;;;;;4948048;28;20508;-85
2022/08/07 06:01:10;;;;;;;3.00;2.80;;;17.50;92.50;;;;;;4954170;28;20531;-84
2022/08/07 06:03:53;;;;;;;3.00;2.73;;;17.50;92.00;;;;;;4981424;28;20460;-83
2022/08/07 06:06:24;;;;;;;2.60;2.27;;;17.50;91.50;;;;;;5005269;28;20460;-83
2022/08/07 06:09:06;;;;;;;3.00;2.70;;;17.60;91.20;;;;;;5014316;28;20466;-84
2022/08/07 06:11:45;;;;;;;5.33;3.00;;;17.50;91.10;;;;;;4997622;28;20472;-84
2022/08/07 06:14:24;;;;;;;3.53;3.23;;;17.60;90.90;;;;;;5024378;28;20440;-85
2022/08/07 06:17:08;;;;;;;2.43;2.23;;;17.70;90.60;;;;;;4997390;28;20551;-83
2022/08/07 06:19:42;;;;;;;2.80;2.60;;;17.80;89.10;;;;;;4998599;28;20517;-85
2022/08/07 06:22:15;;;;;;;2.83;1.90;;;17.70;88.20;;;;;;5011654;28;20556;-87
2022/08/07 06:24:48;;;;;;;2.27;2.07;;;17.80;88.00;;;;;;5018508;28;20456;-87
2022/08/07 06:27:23;;;;;;;2.23;2.07;;;18.00;85.40;;;;;;5029018;28;20469;-87
2022/08/07 06:30:10;;;;;;;2.10;1.90;;;18.00;84.90;;;;;;5022876;28;20437;-86
2022/08/07 06:32:50;;;;;;;1.83;1.73;;;18.10;85.50;;;;;;5036287;28;20508;-88
2022/08/07 06:35:16;;;;;;;2.70;2.27;;;18.40;83.00;;;;;;5034493;28;20545;-88
2022/08/07 06:37:44;;;;;;;2.27;2.00;;;18.60;82.40;;;;;;5016989;28;20896;-87
2022/08/07 06:40:11;;;;;;;2.67;2.47;;;18.50;82.50;;;;;;5042229;28;20493;-87
2022/08/07 06:42:47;;;;;;;3.33;2.50;;;18.70;83.30;;;;;;5036264;28;20470;-90
2022/08/07 06:45:16;;;;;;;4.10;2.60;;;18.70;84.20;;;;;;5017999;28;20449;-86
2022/08/07 06:47:44;;;;;;;2.10;1.80;;;18.80;84.10;;;;;;5017375;28;20455;-86
2022/08/07 06:50:14;;;;;;;2.00;1.90;;;18.80;82.60;;;;;;5029941;28;20550;-86
2022/08/07 06:52:51;;;;;;;1.63;1.50;;;18.90;80.90;;;;;;5025734;28;20472;-86
2022/08/07 06:55:29;;;;;;;3.70;1.63;;;19.00;80.30;;;;;;5025807;28;20446;-87
2022/08/07 06:58:15;;;;;;;1.73;1.63;;;18.90;80.00;;;;;;5010408;28;20434;-88
2022/08/07 07:00:43;;;;;;;2.30;2.10;;;18.90;79.30;;;;;;5043747;28;20451;-87
2022/08/07 07:03:12;;;;;;;1.70;1.60;;;18.80;79.90;;;;;;5009513;28;20478;-88
2022/08/07 07:05:40;;;;;;;2.20;2.00;;;18.90;79.90;;;;;;5026748;28;20438;-88
2022/08/07 07:08:29;;;;;;;2.60;1.60;;;19.00;78.90;;;;;;5021154;28;20440;-85
2022/08/07 07:10:57;;;;;;;2.80;2.60;;;19.10;77.10;;;;;;5037256;28;20445;-88
2022/08/07 07:13:35;;;;;;;4.30;2.00;;;19.10;77.10;;;;;;5018160;28;20884;-87
2022/08/07 07:16:13;;;;;;;2.03;1.43;;;19.20;77.70;;;;;;5015577;28;20508;-87
2022/08/07 07:18:51;;;;;;;2.43;2.23;;;19.60;76.50;;;;;;5001367;28;20451;-87
2022/08/07 07:21:26;;;;;;;1.77;1.67;;;19.70;74.20;;;;;;5003987;28;20460;-86
2022/08/07 07:24:09;;;;;;;1.70;1.60;;;19.80;72.90;;;;;;5020899;28;21381;-86
2022/08/07 07:26:39;;;;;;;2.20;2.00;;;19.80;72.60;;;;;;5012670;28;20467;-86
2022/08/07 07:29:15;;;;;;;1.30;1.20;;;20.30;71.20;;;;;;5010319;28;20599;-88
2022/08/07 07:32:06;;;;;;;1.30;1.20;;;20.60;68.70;;;;;;5017091;28;20470;-87
2022/08/07 07:34:37;;;;;;;1.77;1.40;;;20.50;68.80;;;;;;5002118;28;20541;-88
2022/08/07 07:37:07;;;;;;;1.67;1.40;;;21.40;67.50;;;;;;5015174;28;20492;-88
2022/08/07 07:39:47;;;;;;;1.33;1.23;;;22.10;62.20;;;;;;5001325;28;20493;-89
2022/08/07 07:42:20;;;;;;;1.27;1.10;;;22.10;60.40;;;;;;5008505;28;20478;-86
2022/08/07 07:44:52;;;;;;;1.33;1.23;;;22.40;60.00;;;;;;5022997;28;20885;-89
2022/08/07 07:47:21;;;;;;;1.20;1.10;;;23.80;57.10;;;;;;5022083;28;20465;-87
2022/08/07 07:49:51;;;;;;;0.90;0.90;;;25.40;52.20;;;;;;4994210;28;20459;-88
2022/08/07 07:52:41;;;;;;;1.57;1.10;;;26.40;48.90;;;;;;4999945;28;20483;-87
2022/08/07 07:55:09;;;;;;;1.00;0.90;;;28.30;45.70;;;;;;4991225;28;20458;-88
2022/08/07 07:57:38;;;;;;;0.80;0.80;;;29.70;41.30;;;;;;5025726;28;20488;-87
2022/08/07 08:00:12;;;;;;;0.90;0.70;;;30.40;40.20;;;;;;5024515;28;20482;-91
2022/08/07 08:02:48;;;;;;;1.13;1.13;;;31.30;37.60;;;;;;5023192;28;20470;-89
2022/08/07 08:05:29;;;;;;;0.77;0.77;;;32.80;36.30;;;;;;5015259;28;20465;-87
2022/08/07 08:07:58;;;;;;;0.80;0.70;;;33.80;33.20;;;;;;4994943;28;20482;-87
2022/08/07 08:10:28;;;;;;;1.47;0.80;;;34.00;32.40;;;;;;5017941;28;20454;-87
2022/08/07 08:13:12;;;;;;;1.13;0.83;;;33.90;32.10;;;;;;5021819;28;20477;-87
2022/08/07 08:15:46;;;;;;;0.50;0.50;;;34.00;31.60;;;;;;5001249;28;20513;-86
2022/08/07 08:18:26;;;;;;;0.87;0.80;;;34.70;29.70;;;;;;4992561;28;20462;-86
2022/08/07 08:20:56;;;;;;;0.63;0.63;;;34.40;29.80;;;;;;5005072;28;20466;-87
2022/08/07 08:29:08;;;;;;;1.27;0.80;;;34.20;29.80;;;;;;5017684;28;20485;-88
2022/08/07 08:31:44;;;;;;;0.80;0.70;;;34.60;29.00;;;;;;5013963;28;20488;-85
2022/08/07 08:34:26;;;;;;;0.60;0.60;;;33.40;29.60;;;;;;5006855;28;20454;-85
2022/08/07 08:36:58;;;;;;;0.80;0.70;;;33.10;30.00;;;;;;5010221;28;20905;-87
2022/08/07 08:39:27;;;;;;;1.20;0.80;;;32.70;30.30;;;;;;5019382;28;20493;-88
2022/08/07 08:42:10;;;;;;;0.60;0.60;;;33.40;30.60;;;;;;5004470;28;20489;-87
2022/08/07 08:45:07;;;;;;;0.90;0.70;;;34.80;29.30;;;;;;4997439;28;20450;-85
2022/08/07 08:47:43;;;;;;;0.80;0.60;;;35.90;28.00;;;;;;5006514;28;20489;-87
2022/08/07 08:50:31;;;;;;;1.73;0.70;;;35.20;28.10;;;;;;5011465;28;20492;-87
2022/08/07 08:53:20;;;;;;;0.87;0.80;;;35.20;28.40;;;;;;5011862;28;20517;-87
2022/08/07 08:56:03;;;;;;;1.33;1.00;;;35.80;27.40;;;;;;4985402;28;20453;-87
2022/08/07 08:59:10;;;;;;;1.03;0.60;;;36.50;26.90;;;;;;4996428;28;20469;-87
2022/08/07 09:01:43;;;;;;;0.70;0.60;;;35.60;27.30;;;;;;5015847;28;20456;-86
2022/08/07 09:04:54;;;;;;;0.80;0.70;;;35.90;27.00;;;;;;5013503;28;20453;-87
2022/08/07 09:07:41;;;;;;;0.80;0.80;;;36.00;26.80;;;;;;4989442;28;20468;-85
2022/08/07 09:10:31;;;;;;;1.00;0.70;;;36.10;26.80;;;;;;4993550;28;20466;-87
2022/08/07 09:13:24;;;;;;;0.90;0.80;;;36.40;27.00;;;;;;5001211;28;20485;-87
2022/08/07 09:16:32;;;;;;;0.80;0.80;;;36.00;27.00;;;;;;5004597;28;20481;-87
2022/08/07 09:19:40;;;;;;;0.90;0.83;;;36.10;26.60;;;;;;5001883;28;21036;-86
2022/08/07 09:22:45;;;;;;;1.00;0.90;;;36.00;26.80;;;;;;5024560;28;21233;-86
2022/08/07 09:26:13;;;;;;;1.00;0.80;;;36.60;26.10;;;;;;5009690;28;20454;-86
2022/08/07 09:28:51;;;;;;;0.87;0.70;;;36.20;26.40;;;;;;4956088;28;20561;-86
2022/08/07 09:32:05;;;;;;;1.80;0.83;;;36.40;26.60;;;;;;5003825;28;20435;-86
2022/08/07 09:34:49;;;;;;;1.17;0.60;;;35.70;26.60;;;;;;5004895;28;20525;-85
2022/08/07 09:37:48;;;;;;;1.00;0.60;;;35.00;27.50;;;;;;5008179;28;20550;-87
2022/08/07 09:40:31;;;;;;;0.97;0.97;;;35.60;26.40;;;;;;4995842;28;20454;-86
2022/08/07 09:43:29;;;;;;;1.00;0.70;;;36.00;26.40;;;;;;5010014;28;20482;-89
2022/08/07 09:46:24;;;;;;;0.60;0.60;;;36.40;25.60;;;;;;5018181;28;20470;-87
2022/08/07 09:49:33;;;;;;;0.90;0.80;;;35.00;25.80;;;;;;5004471;28;20452;-86
2022/08/07 09:52:48;;;;;;;1.83;1.30;;;35.60;26.30;;;;;;5023492;28;20487;-86
2022/08/07 09:55:39;;;;;;;1.27;0.60;;;35.60;25.80;;;;;;4999779;28;20480;-87
2022/08/07 09:58:43;;;;;;;0.60;0.60;;;36.00;24.80;;;;;;4994568;28;20489;-86
2022/08/07 10:01:33;;;;;;;0.60;0.60;;;35.30;24.30;;;;;;5001380;28;20538;-86
2022/08/07 10:04:42;;;;;;;0.80;0.60;;;33.90;25.20;;;;;;4995097;28;20462;-86
2022/08/07 10:07:30;;;;;;;4.67;0.70;;;34.20;25.50;;;;;;5000037;28;20540;-87
2022/08/07 10:10:09;;;;;;;1.27;0.90;;;33.40;25.80;;;;;;4997084;28;20462;-87
2022/08/07 10:13:03;;;;;;;0.50;0.50;;;32.90;26.30;;;;;;4984920;28;20482;-87
2022/08/07 10:16:10;;;;;;;0.50;0.50;;;33.40;25.70;;;;;;5015452;28;20468;-87
2022/08/07 10:19:02;;;;;;;0.93;0.90;;;33.00;26.40;;;;;;4996394;28;20473;-87
2022/08/07 10:21:44;;;;;;;0.60;0.60;;;32.80;26.70;;;;;;4989185;28;20557;-87
2022/08/07 10:24:54;;;;;;;1.03;0.50;;;32.00;27.40;;;;;;5008718;28;20449;-86
2022/08/07 10:30:12;;;;;;;0.50;0.40;;;35.30;25.20;;;;;;4730485;26;20454;-89
2022/08/07 10:33:12;;;;;;;2.70;0.60;;;35.40;24.70;;;;;;5027772;28;20466;-89
2022/08/07 10:36:15;;;;;;;0.50;0.47;;;34.00;26.10;;;;;;5011390;28;20457;-89
2022/08/07 10:38:45;;;;;;;1.00;0.63;;;33.80;25.80;;;;;;5023048;28;20502;-89
2022/08/07 10:41:36;;;;;;;4.00;1.07;;;33.70;26.00;;;;;;5745559;23;20490;-87
2022/08/07 10:44:37;;;;;;;0.70;0.70;;;33.40;25.80;;;;;;5080435;23;20494;-88
2022/08/07 10:47:19;;;;;;;0.77;0.50;;;32.80;26.10;;;;;;5016231;28;20454;-89
2022/08/07 10:50:12;;;;;;;1.13;0.60;;;32.60;26.40;;;;;;4997781;28;20454;-86
2022/08/07 10:53:08;;;;;;;0.63;0.60;;;32.80;26.40;;;;;;4994174;28;20483;-86
2022/08/07 10:55:49;;;;;;;0.70;0.70;;;32.90;26.40;;;;;;4972143;28;20453;-88
2022/08/07 10:58:43;;;;;;;0.93;0.93;;;32.70;26.00;;;;;;4987877;28;20514;-87
2022/08/07 11:01:28;;;;;;;1.30;0.60;;;32.50;26.70;;;;;;5003918;28;20465;-86
2022/08/07 11:04:18;;;;;;;0.87;0.70;;;34.60;25.50;;;;;;4984448;28;20486;-87
2022/08/07 11:07:19;;;;;;;0.77;0.60;;;34.20;25.90;;;;;;4983735;28;20494;-86
2022/08/07 11:09:56;;;;;;;0.90;0.90;;;33.60;26.30;;;;;;4981921;28;20462;-87
2022/08/07 11:12:40;;;;;;;0.70;0.70;;;33.60;26.50;;;;;;4985764;28;20532;-87
2022/08/07 11:15:24;;;;;;;2.23;0.70;;;34.20;25.70;;;;;;4979633;28;20471;-87
2022/08/07 11:18:23;;;;;;;0.70;0.70;;;34.10;25.80;;;;;;4999594;28;20483;-85
2022/08/07 11:21:04;;;;;;;0.90;0.80;;;33.40;27.00;;;;;;4995203;28;20461;-87
2022/08/07 11:24:04;;;;;;;0.90;0.77;;;32.90;26.50;;;;;;5002726;28;20469;-86
2022/08/07 11:26:43;;;;;;;0.77;0.70;;;32.00;26.90;;;;;;5000714;28;21044;-88
2022/08/07 11:29:23;;;;;;;0.50;0.50;;;32.50;27.30;;;;;;4982603;28;20473;-87
2022/08/07 11:32:16;;;;;;;2.17;0.63;;;33.50;26.70;;;;;;4985893;28;20467;-87
2022/08/07 11:34:58;;;;;;;0.97;0.70;;;33.70;26.90;;;;;;4992277;28;20447;-87
2022/08/07 11:37:46;;;;;;;0.70;0.63;;;33.00;26.70;;;;;;5003010;28;20487;-87
2022/08/07 11:40:54;;;;;;;1.37;0.50;;;32.80;27.30;;;;;;4992869;28;20443;-88
2022/08/07 11:43:27;;;;;;;1.37;0.73;;;33.90;26.40;;;;;;4971391;28;20482;-87
2022/08/07 11:46:49;;;;;;;0.80;0.70;;;33.40;26.80;;;;;;4990019;28;20462;-88
2022/08/07 11:49:24;;;;;;;0.60;0.50;;;33.20;27.00;;;;;;4969302;28;20467;-88
2022/08/07 11:52:03;;;;;;;0.87;0.60;;;33.10;27.10;;;;;;4978611;28;20458;-86
2022/08/07 11:54:59;;;;;;;0.90;0.73;;;32.70;27.10;;;;;;4983996;28;20948;-87
2022/08/07 11:57:59;;;;;;;1.53;0.67;;;33.70;26.70;;;;;;4968380;28;20483;-88
2022/08/07 12:00:51;;;;;;;1.17;0.60;;;33.90;26.70;;;;;;4966076;28;20451;-87
2022/08/07 12:03:53;;;;;;;0.77;0.77;;;33.40;26.90;;;;;;4983063;28;20479;-86
2022/08/07 12:06:39;;;;;;;1.00;0.77;;;33.80;26.90;;;;;;5001466;28;20450;-85
2022/08/07 12:09:33;;;;;;;0.90;0.80;;;33.30;26.90;;;;;;4995436;28;20489;-86
2022/08/07 12:12:11;;;;;;;0.50;0.50;;;32.70;27.30;;;;;;4983604;28;20531;-86
2022/08/07 12:15:02;;;;;;;0.77;0.77;;;33.60;26.70;;;;;;4984728;28;20424;-86
2022/08/07 12:17:41;;;;;;;0.73;0.73;;;32.90;27.10;;;;;;4985559;28;20539;-85
2022/08/07 12:20:47;;;;;;;0.60;0.60;;;33.10;27.20;;;;;;5017350;28;20529;-85
2022/08/07 12:23:55;;;;;;;0.90;0.80;;;32.20;28.00;;;;;;4968689;28;20471;-86
2022/08/07 12:27:02;;;;;;;1.13;0.50;;;33.30;27.50;;;;;;4979599;28;20487;-89
2022/08/07 12:29:44;;;;;;;0.80;0.80;;;33.20;26.80;;;;;;4996397;28;20428;-86
2022/08/07 12:32:28;;;;;;;1.00;0.87;;;33.10;27.30;;;;;;5009386;28;20454;-87
2022/08/07 12:34:58;;;;;;;0.77;0.70;;;32.90;27.40;;;;;;5002639;28;20471;-90
2022/08/07 12:37:28;;;;;;;1.27;0.80;;;33.20;26.90;;;;;;5011021;28;20458;-89
2022/08/07 12:40:20;;;;;;;1.27;0.70;;;32.50;27.70;;;;;;5007038;28;20511;-92
2022/08/07 12:43:09;;;;;;;0.80;0.80;;;32.60;27.60;;;;;;5009211;28;20475;-89
2022/08/07 12:46:27;;;;;;;0.90;0.60;;;32.20;27.40;;;;;;5013465;28;20491;-89
2022/08/07 12:49:10;;;;;;;0.70;0.70;;;33.00;27.10;;;;;;4999551;28;20446;-90
2022/08/07 12:52:11;;;;;;;0.80;0.80;;;32.80;27.50;;;;;;5016315;28;20464;-86
2022/08/07 12:54:57;;;;;;;1.33;0.80;;;32.60;27.40;;;;;;4968790;28;20448;-87
2022/08/07 12:57:34;;;;;;;1.20;0.70;;;32.50;27.70;;;;;;4999736;28;20544;-86
2022/08/07 13:00:08;;;;;;;0.70;0.60;;;32.50;27.50;;;;;;4980880;28;20447;-85
2022/08/07 13:03:02;;;;;;;0.60;0.57;;;32.30;27.60;;;;;;4994157;28;20489;-88
2022/08/07 13:05:41;;;;;;;0.97;0.70;;;33.10;27.60;;;;;;5021007;28;20463;-86
2022/08/07 13:08:53;;;;;;;4.10;0.90;;;33.00;27.20;;;;;;5011802;28;20434;-89
2022/08/07 13:11:30;;;;;;;0.73;0.70;;;33.10;27.60;;;;;;5019509;28;20430;-89
2022/08/07 13:14:23;;;;;;;0.70;0.70;;;33.10;27.30;;;;;;5010589;28;20451;-89
2022/08/07 13:17:04;;;;;;;0.67;0.50;;;33.80;26.40;;;;;;5018510;28;20501;-92
2022/08/07 13:20:05;;;;;;;1.13;0.60;;;33.50;26.70;;;;;;5025348;28;20476;-89
2022/08/07 13:22:40;;;;;;;1.00;0.73;;;33.30;27.00;;;;;;4994804;28;20490;-88
2022/08/07 13:25:30;;;;;;;0.53;0.53;;;32.80;27.30;;;;;;4993287;28;20457;-85
2022/08/07 13:28:03;;;;;;;1.80;1.70;;;32.50;27.30;;;;;;4986826;28;20465;-86
2022/08/07 13:30:33;;;;;;;0.70;0.70;;;32.30;27.70;;;;;;4994993;28;20748;-86
2022/08/07 13:33:27;;;;;;;0.90;0.70;;;32.40;27.60;;;;;;4983631;28;20838;-86
2022/08/07 13:36:31;;;;;;;0.80;0.80;;;32.10;28.20;;;;;;4998843;28;20442;-87
2022/08/07 13:39:27;;;;;;;1.47;0.70;;;32.20;28.60;;;;;;4963551;28;20483;-87
2022/08/07 13:42:16;;;;;;;1.30;0.73;;;32.90;27.50;;;;;;4975238;28;20879;-86
2022/08/07 13:44:46;;;;;;;0.60;0.60;;;33.10;27.00;;;;;;4980019;28;20440;-86
2022/08/07 13:47:25;;;;;;;0.63;0.63;;;32.90;27.10;;;;;;4980448;28;20489;-86
2022/08/07 13:49:56;;;;;;;1.00;0.90;;;32.50;27.40;;;;;;5005540;28;20462;-89
2022/08/07 13:52:45;;;;;;;1.23;0.70;;;32.00;27.90;;;;;;5023145;28;20537;-87
2022/08/07 13:55:15;;;;;;;2.70;0.50;;;32.20;27.80;;;;;;4992986;28;20458;-86
2022/08/07 13:57:50;;;;;;;1.07;0.97;;;32.30;27.60;;;;;;4988530;28;20490;-86
2022/08/07 14:00:35;;;;;;;1.23;0.60;;;32.30;28.20;;;;;;5019041;28;20446;-86
2022/08/07 14:03:07;;;;;;;1.13;0.93;;;32.30;27.70;;;;;;5019804;28;20480;-86
2022/08/07 14:05:35;;;;;;;2.70;2.50;;;32.00;28.30;;;;;;5004193;28;20443;-93